Time;durP1;ratioP1;P1;durP2;ratioP2;P2;SDS_P1;SDS_P2;PMS_P1;PMS_P2;Temp;Humidity;BMP_temperature;BMP_pressure;BME280_temperature;BME280_humidity;BME280_pressure;Samples;Min_cycle;Max_cycle;Signal;HPM_P1;HPM_P2
2023/11/19 00:00:40;;;;;;;3.28;1.50;;;;;;;1.53;72.65;93868.19;4887570;29;20037;-77
2023/11/19 00:03:05;;;;;;;3.00;1.50;;;;;;;1.53;72.60;93875.28;4888464;29;20096;-77
2023/11/19 00:05:31;;;;;;;3.63;1.92;;;;;;;1.55;72.45;93862.66;4888384;29;20319;-77
2023/11/19 00:07:57;;;;;;;4.93;1.50;;;;;;;1.57;72.09;93842.19;4888649;29;20037;-77
2023/11/19 00:10:22;;;;;;;7.65;1.75;;;;;;;1.60;72.45;93860.06;4888234;29;20029;-77
2023/11/19 00:12:49;;;;;;;2.85;1.80;;;;;;;1.61;72.13;93864.28;4888514;29;20104;-77
2023/11/19 00:15:17;;;;;;;3.90;1.70;;;;;;;1.59;72.01;93858.47;4892584;29;20021;-77
2023/11/19 00:17:46;;;;;;;3.22;1.60;;;;;;;1.64;72.32;93857.72;4891047;29;20029;-77
2023/11/19 00:20:18;;;;;;;2.80;1.63;;;;;;;1.63;71.49;93877.13;4892328;29;20093;-76
2023/11/19 00:22:48;;;;;;;2.88;1.52;;;;;;;1.66;71.71;93871.38;4892459;29;20025;-77
2023/11/19 00:25:14;;;;;;;2.45;1.63;;;;;;;1.64;71.79;93858.50;4892192;29;20028;-77
2023/11/19 00:27:39;;;;;;;3.33;1.75;;;;;;;1.58;71.88;93864.78;4892218;29;20071;-77
2023/11/19 00:30:06;;;;;;;3.03;1.70;;;;;;;1.59;71.65;93872.41;4892120;29;20021;-77
2023/11/19 00:32:36;;;;;;;3.53;1.88;;;;;;;1.57;71.73;93868.47;4892120;29;20227;-77
2023/11/19 00:35:02;;;;;;;3.25;1.50;;;;;;;1.60;71.84;93873.97;4891987;29;20021;-76
2023/11/19 00:37:28;;;;;;;2.65;1.65;;;;;;;1.59;72.30;93851.38;4891989;29;20252;-76
2023/11/19 00:39:55;;;;;;;4.00;1.77;;;;;;;1.56;72.12;93869.50;4891536;29;20028;-77
2023/11/19 00:42:20;;;;;;;7.45;2.20;;;;;;;1.57;72.25;93873.72;4891945;29;20201;-76
2023/11/19 00:44:46;;;;;;;3.40;1.75;;;;;;;1.56;72.37;93866.88;4890859;29;20056;-77
2023/11/19 00:47:11;;;;;;;2.67;1.33;;;;;;;1.52;72.31;93890.22;4891774;29;20097;-77
2023/11/19 00:49:37;;;;;;;4.03;2.00;;;;;;;1.56;72.53;93872.13;4890505;29;20440;-77
2023/11/19 00:52:03;;;;;;;3.33;1.70;;;;;;;1.57;72.58;93874.50;4891785;29;20367;-77
2023/11/19 00:54:28;;;;;;;3.03;1.70;;;;;;;1.60;72.58;93873.19;4891608;29;20088;-77
2023/11/19 00:56:54;;;;;;;3.60;1.90;;;;;;;1.63;72.01;93870.06;4891574;29;20304;-77
2023/11/19 00:59:19;;;;;;;4.05;2.00;;;;;;;1.65;72.26;93886.34;4890192;29;20029;-77
2023/11/19 01:01:45;;;;;;;3.45;1.92;;;;;;;1.59;72.07;93863.75;4891666;29;20097;-77
2023/11/19 01:04:10;;;;;;;3.20;1.80;;;;;;;1.57;72.53;93889.47;4891545;29;20230;-76
2023/11/19 01:06:36;;;;;;;5.40;1.90;;;;;;;1.55;72.52;93878.44;4891314;29;20052;-76
2023/11/19 01:09:02;;;;;;;3.58;1.90;;;;;;;1.58;72.38;93891.03;4891398;29;20033;-76
2023/11/19 01:11:28;;;;;;;2.10;1.30;;;;;;;1.56;72.28;93882.63;4891524;29;20032;-76
2023/11/19 01:13:53;;;;;;;3.35;1.83;;;;;;;1.59;71.93;93887.38;4890153;29;20029;-76
2023/11/19 01:16:19;;;;;;;2.65;1.98;;;;;;;1.56;72.02;93886.03;4890047;29;20033;-76
2023/11/19 01:18:47;;;;;;;3.25;1.75;;;;;;;1.59;72.33;93871.63;4891389;29;20049;-76
2023/11/19 01:21:14;;;;;;;3.17;1.83;;;;;;;1.56;72.35;93872.13;4889971;29;20036;-76
2023/11/19 01:23:42;;;;;;;3.67;1.65;;;;;;;1.54;72.26;93882.09;4889923;29;20099;-76
2023/11/19 01:26:10;;;;;;;3.10;1.58;;;;;;;1.55;72.07;93878.44;4889832;29;20040;-76
2023/11/19 01:28:35;;;;;;;3.55;1.70;;;;;;;1.54;72.30;93884.72;4891045;29;20021;-76
2023/11/19 01:31:01;;;;;;;3.42;1.90;;;;;;;1.50;71.81;93873.94;4890918;29;20323;-76
2023/11/19 01:33:27;;;;;;;3.78;2.00;;;;;;;1.52;71.99;93879.72;4890804;29;20025;-77
2023/11/19 01:35:53;;;;;;;2.97;1.73;;;;;;;1.48;72.00;93885.75;4890877;29;20037;-76
2023/11/19 01:38:19;;;;;;;2.75;1.60;;;;;;;1.51;72.35;93891.28;4890887;29;20036;-76
2023/11/19 01:40:44;;;;;;;3.30;1.90;;;;;;;1.55;72.67;93894.19;4889742;29;20341;-76
2023/11/19 01:43:11;;;;;;;3.92;1.60;;;;;;;1.44;71.69;93905.69;4890818;29;20123;-76
2023/11/19 01:45:38;;;;;;;2.47;1.60;;;;;;;1.43;71.50;93885.72;4890595;29;20339;-76
2023/11/19 01:48:04;;;;;;;3.22;1.77;;;;;;;1.38;71.99;93876.78;4890704;29;20021;-76
2023/11/19 01:50:31;;;;;;;3.38;2.03;;;;;;;1.31;71.71;93891.19;4890725;29;20044;-76
2023/11/19 01:53:00;;;;;;;2.50;1.58;;;;;;;1.38;71.99;93910.91;4890517;29;20055;-77
2023/11/19 01:55:30;;;;;;;2.20;1.35;;;;;;;1.40;71.58;93897.50;4890717;29;20035;-76
2023/11/19 01:58:01;;;;;;;2.75;1.42;;;;;;;1.31;71.20;93902.47;4889161;29;20028;-76
2023/11/19 02:00:26;;;;;;;2.45;1.42;;;;;;;1.32;71.52;93909.31;4890578;29;20036;-77
2023/11/19 02:02:52;;;;;;;3.00;1.55;;;;;;;1.35;71.15;93903.53;4890486;29;20424;-77
2023/11/19 02:05:18;;;;;;;1.50;1.00;;;;;;;1.37;70.93;93905.91;4890493;29;20375;-76
2023/11/19 02:07:43;;;;;;;3.22;1.50;;;;;;;1.36;70.69;93902.50;4890271;29;20025;-77
2023/11/19 02:10:13;;;;;;;2.13;1.50;;;;;;;1.37;70.60;93887.53;4890223;29;20029;-77
2023/11/19 02:12:42;;;;;;;3.75;1.70;;;;;;;1.40;70.41;93876.50;4890173;29;20036;-77
2023/11/19 02:15:09;;;;;;;4.00;1.65;;;;;;;1.38;70.86;93882.03;4890153;29;20032;-77
2023/11/19 02:17:37;;;;;;;4.75;1.85;;;;;;;1.35;71.05;93866.00;4889023;29;20033;-77
2023/11/19 02:20:06;;;;;;;2.38;1.73;;;;;;;1.27;70.97;93869.09;4889984;29;20029;-77
2023/11/19 02:22:31;;;;;;;3.88;1.65;;;;;;;1.16;71.02;93858.53;4888904;29;20025;-77
2023/11/19 02:25:03;;;;;;;2.78;1.48;;;;;;;1.15;70.94;93883.19;4888977;29;20028;-77
2023/11/19 02:27:38;;;;;;;;;;;;;;;1.20;71.04;93864.03;4889262;29;20073;-77
2023/11/19 02:30:06;;;;;;;1.98;0.90;;;;;;;1.13;71.08;93895.78;4889893;29;19922;-77
2023/11/19 02:32:31;;;;;;;3.92;1.77;;;;;;;1.20;70.86;93887.69;4889855;29;20055;-77
2023/11/19 02:34:57;;;;;;;2.83;1.20;;;;;;;1.20;70.92;93895.56;4890041;29;20029;-77
2023/11/19 02:37:23;;;;;;;3.45;1.60;;;;;;;1.20;70.96;93883.25;4889365;29;20029;-76
2023/11/19 02:39:48;;;;;;;2.55;1.30;;;;;;;1.24;70.64;93878.25;4889844;29;20031;-77
2023/11/19 02:42:14;;;;;;;2.00;1.17;;;;;;;1.29;70.33;93872.25;4889842;29;20021;-77
2023/11/19 02:44:44;;;;;;;3.25;1.83;;;;;;;1.35;70.16;93893.03;4889705;29;20024;-76
2023/11/19 02:47:09;;;;;;;3.20;1.58;;;;;;;1.30;70.34;93879.84;4889746;29;20024;-77
2023/11/19 02:49:37;;;;;;;3.33;1.75;;;;;;;1.32;70.32;93883.06;4889646;29;20091;-77
2023/11/19 02:52:05;;;;;;;2.30;1.48;;;;;;;1.27;70.45;93883.00;4889366;29;20025;-77
2023/11/19 02:54:34;;;;;;;3.00;1.52;;;;;;;1.28;70.48;93886.41;4889296;29;20205;-77
2023/11/19 02:57:02;;;;;;;2.25;1.35;;;;;;;1.29;70.24;93874.88;4889487;29;20394;-76
2023/11/19 02:59:27;;;;;;;3.10;1.63;;;;;;;1.26;70.27;93872.75;4889313;29;20037;-77
2023/11/19 03:01:54;;;;;;;2.67;1.40;;;;;;;1.29;70.24;93872.25;4889261;29;20084;-77
2023/11/19 03:04:23;;;;;;;2.80;1.67;;;;;;;1.17;70.22;93862.72;4889804;29;20024;-77
2023/11/19 03:06:49;;;;;;;2.08;1.35;;;;;;;1.18;70.46;93880.06;4889292;29;20049;-76
2023/11/19 03:09:14;;;;;;;2.67;1.55;;;;;;;1.15;70.50;93861.41;4889347;29;20025;-77
2023/11/19 03:11:39;;;;;;;4.25;2.10;;;;;;;1.10;71.22;93869.25;4889229;29;20293;-77
2023/11/19 03:14:05;;;;;;;2.65;1.50;;;;;;;1.06;71.00;93891.78;4889168;29;20029;-77
2023/11/19 03:16:30;;;;;;;2.78;1.58;;;;;;;1.06;71.29;93886.53;4889328;29;20035;-77
2023/11/19 03:18:56;;;;;;;2.83;1.75;;;;;;;0.98;71.61;93893.84;4888926;29;20231;-77
2023/11/19 03:21:29;;;;;;;10.15;1.70;;;;;;;0.93;71.85;93877.28;4887701;29;20212;-77
2023/11/19 03:23:55;;;;;;;2.92;1.60;;;;;;;0.92;71.79;93873.09;4888991;29;20327;-77
2023/11/19 03:26:21;;;;;;;3.50;1.48;;;;;;;0.87;71.63;93886.94;4889128;29;20124;-77
2023/11/19 03:28:47;;;;;;;2.92;1.50;;;;;;;0.97;71.54;93894.88;4889032;29;20049;-77
2023/11/19 03:31:12;;;;;;;2.95;1.40;;;;;;;0.95;71.45;93886.47;4888730;29;20028;-77
2023/11/19 03:33:38;;;;;;;2.65;1.50;;;;;;;0.94;71.87;93887.53;4889084;29;20101;-77
2023/11/19 03:36:03;;;;;;;2.25;1.23;;;;;;;0.91;71.76;93880.16;4888805;29;20036;-77
2023/11/19 03:38:29;;;;;;;3.83;1.50;;;;;;;0.90;71.86;93880.41;4888721;29;20227;-76
2023/11/19 03:40:54;;;;;;;2.90;1.50;;;;;;;0.88;71.95;93878.03;4888750;29;20036;-77
2023/11/19 03:43:20;;;;;;;3.63;1.88;;;;;;;0.90;71.66;93910.06;4888731;29;20051;-77
2023/11/19 03:45:46;;;;;;;3.72;1.80;;;;;;;0.94;71.97;93892.00;4888818;29;20071;-77
2023/11/19 03:48:11;;;;;;;3.60;1.75;;;;;;;0.91;71.80;93895.09;4887839;29;20045;-77
2023/11/19 03:50:37;;;;;;;4.95;2.30;;;;;;;0.93;72.13;93901.69;4888496;29;20338;-77
2023/11/19 03:53:02;;;;;;;2.72;1.38;;;;;;;0.90;72.13;93933.69;4888658;29;20100;-76
2023/11/19 03:55:29;;;;;;;4.55;1.70;;;;;;;0.90;72.26;93940.78;4888496;29;20223;-76
2023/11/19 03:57:54;;;;;;;3.28;1.67;;;;;;;0.89;72.14;93911.09;4888465;29;20025;-76
2023/11/19 04:00:20;;;;;;;3.88;1.75;;;;;;;0.89;72.38;93920.81;4888739;29;20036;-76
2023/11/19 04:02:46;;;;;;;2.97;1.63;;;;;;;0.95;71.99;93917.19;4888846;29;20254;-76
2023/11/19 04:05:12;;;;;;;2.70;1.75;;;;;;;0.92;72.23;93928.19;4888476;29;20036;-76
2023/11/19 04:07:38;;;;;;;3.83;1.90;;;;;;;0.94;72.37;93916.41;4888362;29;20032;-76
2023/11/19 04:10:04;;;;;;;2.42;1.20;;;;;;;0.92;72.28;93915.06;4888524;29;20037;-76
2023/11/19 04:12:29;;;;;;;4.43;1.80;;;;;;;0.94;72.32;93921.66;4888374;29;20028;-76
2023/11/19 04:14:56;;;;;;;2.13;1.52;;;;;;;0.92;72.33;93936.84;4888468;29;20047;-77
2023/11/19 04:17:22;;;;;;;2.17;1.55;;;;;;;0.92;72.18;93939.47;4888548;29;20048;-76
2023/11/19 04:19:48;;;;;;;2.92;1.40;;;;;;;0.90;72.18;93938.94;4888464;29;20048;-76
2023/11/19 04:22:14;;;;;;;3.35;1.55;;;;;;;0.93;71.98;93925.28;4888317;29;20163;-76
2023/11/19 04:24:40;;;;;;;4.38;1.70;;;;;;;0.95;72.02;93931.09;4888309;29;20315;-76
2023/11/19 04:27:06;;;;;;;4.40;1.80;;;;;;;0.98;72.22;93929.81;4888416;29;20160;-76
2023/11/19 04:29:32;;;;;;;3.08;1.42;;;;;;;0.97;71.54;93934.25;4887213;29;20327;-76
2023/11/19 04:31:58;;;;;;;2.65;1.35;;;;;;;0.99;71.64;93947.13;4888147;29;20048;-76
2023/11/19 04:34:23;;;;;;;3.45;1.58;;;;;;;0.97;71.82;93962.34;4888266;29;20350;-76
2023/11/19 04:36:49;;;;;;;4.43;1.27;;;;;;;0.98;71.43;93940.31;4888260;29;20029;-76
2023/11/19 04:39:15;;;;;;;3.63;2.03;;;;;;;1.02;71.46;93956.34;4888096;29;20216;-76
2023/11/19 04:41:54;;;;;;;3.08;1.63;;;;;;;1.00;71.44;93939.00;4888109;29;20072;-76
2023/11/19 04:44:20;;;;;;;2.85;1.45;;;;;;;1.00;71.23;93953.97;4888310;29;20044;-76
2023/11/19 04:46:46;;;;;;;2.83;1.33;;;;;;;1.00;70.80;93952.13;4888330;29;20325;-77
2023/11/19 04:49:13;;;;;;;3.55;2.10;;;;;;;0.99;70.83;93941.88;4886936;29;20254;-76
2023/11/19 04:51:43;;;;;;;2.85;1.52;;;;;;;1.04;70.88;93941.13;4888110;29;20069;-76
2023/11/19 04:54:09;;;;;;;3.05;1.50;;;;;;;1.07;70.74;93943.25;4887847;29;20057;-76
2023/11/19 04:56:37;;;;;;;5.43;1.50;;;;;;;1.11;69.90;93945.13;4886849;29;20141;-76
2023/11/19 04:59:02;;;;;;;2.03;1.13;;;;;;;1.09;69.72;93951.69;4888286;29;20279;-77
2023/11/19 05:01:28;;;;;;;3.50;1.90;;;;;;;1.11;69.76;93939.88;4891411;29;20028;-76
2023/11/19 05:03:53;;;;;;;4.35;1.75;;;;;;;1.15;69.53;93956.72;4890346;29;20055;-76
2023/11/19 05:06:19;;;;;;;4.10;1.85;;;;;;;1.14;69.73;93962.19;4890437;29;20278;-76
2023/11/19 05:08:44;;;;;;;3.30;1.33;;;;;;;1.12;69.51;93982.66;4891417;29;20021;-76
2023/11/19 05:11:12;;;;;;;3.25;1.50;;;;;;;1.11;69.43;93981.09;4891456;29;20036;-76
2023/11/19 05:13:38;;;;;;;2.83;1.27;;;;;;;1.04;69.74;94012.00;4890200;29;20025;-76
2023/11/19 05:16:03;;;;;;;3.42;1.42;;;;;;;1.02;69.81;93991.28;4891281;29;20081;-76
2023/11/19 05:18:29;;;;;;;3.33;1.50;;;;;;;1.08;70.15;93984.22;4891058;29;20033;-76
2023/11/19 05:20:54;;;;;;;5.32;1.83;;;;;;;1.11;69.88;93986.34;4891332;29;20263;-76
2023/11/19 05:23:20;;;;;;;3.38;1.48;;;;;;;1.08;69.60;93984.22;4891306;29;20021;-77
2023/11/19 05:25:45;;;;;;;3.63;1.83;;;;;;;1.08;69.59;93986.84;4891214;29;20319;-77
2023/11/19 05:28:11;;;;;;;2.65;1.67;;;;;;;1.04;69.95;93977.88;4891059;29;20084;-77
2023/11/19 05:30:36;;;;;;;2.65;1.40;;;;;;;1.02;70.13;93966.84;4891155;29;20033;-77
2023/11/19 05:33:02;;;;;;;2.97;1.58;;;;;;;1.06;70.06;93975.78;4890908;29;20055;-77
2023/11/19 05:35:28;;;;;;;3.40;1.80;;;;;;;0.99;70.25;93989.13;4890840;29;20029;-77
2023/11/19 05:37:53;;;;;;;3.65;1.77;;;;;;;1.02;70.34;93986.03;4889528;29;20451;-76
2023/11/19 05:40:20;;;;;;;3.08;1.77;;;;;;;1.01;70.42;93992.28;4890935;29;20017;-77
2023/11/19 05:42:46;;;;;;;2.92;1.67;;;;;;;1.04;70.74;93997.06;4891024;29;20020;-77
2023/11/19 05:45:12;;;;;;;4.63;1.67;;;;;;;1.06;70.94;93989.72;4890835;29;20334;-77
2023/11/19 05:47:37;;;;;;;3.35;1.70;;;;;;;1.09;70.31;93999.72;4890664;29;20025;-77
2023/11/19 05:50:05;;;;;;;3.15;1.73;;;;;;;1.04;70.07;93996.25;4890502;29;20265;-77
2023/11/19 05:52:33;;;;;;;6.32;1.75;;;;;;;1.02;70.33;94004.41;4890497;29;20021;-77
2023/11/19 05:55:03;;;;;;;5.93;1.70;;;;;;;1.06;70.23;93978.41;4890681;29;20025;-77
2023/11/19 05:57:29;;;;;;;2.92;1.60;;;;;;;1.04;70.14;94007.56;4890584;29;20029;-76
2023/11/19 05:59:54;;;;;;;5.57;1.88;;;;;;;0.99;70.57;93991.75;4890322;29;20033;-77
2023/11/19 06:02:20;;;;;;;6.00;2.00;;;;;;;0.95;70.75;93978.34;4890559;29;20036;-77
2023/11/19 06:04:47;;;;;;;2.88;1.50;;;;;;;0.99;70.82;93983.88;4890581;29;20073;-77
2023/11/19 06:07:14;;;;;;;3.65;1.88;;;;;;;1.05;70.43;94003.09;4890391;29;20291;-77
2023/11/19 06:09:39;;;;;;;3.80;1.85;;;;;;;1.06;70.49;94007.28;4890406;29;20021;-77
2023/11/19 06:12:07;;;;;;;3.65;1.63;;;;;;;1.06;70.41;94007.28;4889372;29;20052;-76
2023/11/19 06:14:32;;;;;;;3.90;1.98;;;;;;;1.04;70.43;94019.88;4890174;29;20028;-76
2023/11/19 06:16:58;;;;;;;5.10;1.80;;;;;;;1.05;70.77;94003.09;4890131;29;20208;-76
2023/11/19 06:19:24;;;;;;;4.32;1.95;;;;;;;0.99;70.44;94018.78;4890069;29;20052;-76
2023/11/19 06:21:50;;;;;;;2.60;1.70;;;;;;;1.02;70.72;94004.41;4890093;29;20280;-76
2023/11/19 06:24:16;;;;;;;3.63;2.13;;;;;;;0.99;70.87;94031.13;4889894;29;20032;-76
2023/11/19 06:26:41;;;;;;;4.80;2.45;;;;;;;0.98;70.86;94013.81;4890044;29;20323;-77
2023/11/19 06:29:07;;;;;;;3.28;2.08;;;;;;;0.93;71.50;94021.63;4889876;29;20068;-77
2023/11/19 06:31:32;;;;;;;3.55;1.92;;;;;;;0.89;71.15;94021.31;4889763;29;20025;-76
2023/11/19 06:33:57;;;;;;;4.38;1.65;;;;;;;0.85;71.23;94043.84;4889820;29;20075;-76
2023/11/19 06:36:23;;;;;;;3.15;2.03;;;;;;;0.90;71.18;93988.00;4889782;29;20223;-75
2023/11/19 06:38:48;;;;;;;3.78;1.77;;;;;;;0.84;71.38;94005.53;4889879;29;20056;-76
2023/11/19 06:41:14;;;;;;;4.40;1.67;;;;;;;0.93;71.43;94011.13;4889557;29;20037;-76
2023/11/19 06:43:39;;;;;;;4.75;2.10;;;;;;;0.91;71.15;94000.88;4889583;29;20025;-76
2023/11/19 06:46:06;;;;;;;4.82;2.15;;;;;;;0.89;70.95;94012.66;4889471;29;20044;-76
2023/11/19 06:48:34;;;;;;;2.38;1.40;;;;;;;0.78;71.38;93999.44;4889429;29;20354;-76
2023/11/19 06:51:00;;;;;;;4.10;1.63;;;;;;;0.76;71.28;94006.78;4889524;29;20248;-76
2023/11/19 06:53:27;;;;;;;4.97;1.88;;;;;;;0.78;71.33;94003.91;4889410;29;20051;-77
2023/11/19 06:55:53;;;;;;;5.45;2.22;;;;;;;0.87;71.31;93999.00;4889576;29;20024;-76
2023/11/19 06:58:19;;;;;;;3.38;2.20;;;;;;;0.85;70.90;94022.84;4889394;29;20137;-76
2023/11/19 07:00:45;;;;;;;5.03;1.67;;;;;;;0.91;71.02;94015.81;4889428;29;20214;-76
2023/11/19 07:03:11;;;;;;;3.63;1.88;;;;;;;0.93;70.75;94017.16;4889421;29;20029;-76
2023/11/19 07:05:39;;;;;;;2.58;1.40;;;;;;;0.90;70.30;94049.16;4888056;29;20353;-76
2023/11/19 07:08:08;;;;;;;4.28;2.20;;;;;;;0.88;70.30;94018.97;4889292;29;20027;-76
2023/11/19 07:10:33;;;;;;;5.00;2.17;;;;;;;0.90;70.49;94024.75;4889051;29;20275;-76
2023/11/19 07:12:59;;;;;;;3.45;2.33;;;;;;;0.76;70.63;94034.84;4889279;29;20048;-76
2023/11/19 07:15:24;;;;;;;3.25;2.13;;;;;;;0.76;70.58;94027.75;4887987;29;20103;-76
2023/11/19 07:17:50;;;;;;;5.55;2.35;;;;;;;0.74;70.95;94021.19;4889270;29;20101;-77
2023/11/19 07:20:15;;;;;;;4.78;2.30;;;;;;;0.76;71.13;94026.97;4889317;29;20051;-77
2023/11/19 07:22:47;;;;;;;6.90;2.42;;;;;;;0.78;70.42;94030.16;4889040;29;20037;-76
2023/11/19 07:25:15;;;;;;;3.15;1.90;;;;;;;0.77;70.62;94026.75;4888949;29;20028;-76
2023/11/19 07:27:40;;;;;;;4.75;2.20;;;;;;;0.77;69.96;94039.03;4889057;29;20346;-76
2023/11/19 07:30:09;;;;;;;3.58;2.10;;;;;;;0.75;70.10;94049.00;4889063;29;20032;-76
2023/11/19 07:32:35;;;;;;;4.05;2.05;;;;;;;0.81;70.17;94050.63;4887606;29;20135;-76
2023/11/19 07:35:00;;;;;;;5.95;2.15;;;;;;;0.86;70.41;94079.56;4888880;29;20237;-76
2023/11/19 07:37:26;;;;;;;4.63;2.17;;;;;;;0.93;70.03;94069.66;4888748;29;20055;-77
2023/11/19 07:39:51;;;;;;;4.32;2.17;;;;;;;0.96;69.35;94098.03;4887337;29;20029;-77
2023/11/19 07:42:16;;;;;;;3.58;1.80;;;;;;;0.87;69.63;94070.63;4887898;29;20033;-76
2023/11/19 07:44:43;;;;;;;3.47;2.15;;;;;;;0.82;69.70;94067.97;4888726;29;20333;-76
2023/11/19 07:47:09;;;;;;;4.50;1.83;;;;;;;0.83;69.81;94077.41;4888700;29;20025;-76
2023/11/19 07:49:34;;;;;;;4.60;2.50;;;;;;;0.89;69.70;94076.44;4888727;29;20370;-76
2023/11/19 07:52:00;;;;;;;6.65;2.38;;;;;;;0.84;69.08;94065.91;4888664;29;20036;-76
2023/11/19 07:54:25;;;;;;;5.50;2.40;;;;;;;0.89;69.24;94110.53;4888390;29;20410;-76
2023/11/19 07:56:51;;;;;;;5.40;2.20;;;;;;;0.83;68.42;94076.63;4888730;29;20044;-76
2023/11/19 07:59:16;;;;;;;2.95;1.95;;;;;;;0.78;68.64;94090.50;4888638;29;20375;-76
2023/11/19 08:01:42;;;;;;;2.60;1.70;;;;;;;0.78;68.97;94085.25;4888475;29;20032;-76
2023/11/19 08:04:07;;;;;;;3.67;2.10;;;;;;;0.80;68.96;94070.06;4888514;29;20315;-76
2023/11/19 08:06:33;;;;;;;4.65;2.25;;;;;;;0.85;69.06;94114.69;4887147;29;20096;-76
2023/11/19 08:08:59;;;;;;;7.10;2.35;;;;;;;0.82;69.19;94117.03;4888254;29;20087;-76
2023/11/19 08:11:24;;;;;;;4.32;2.08;;;;;;;0.74;68.93;94084.16;4888342;29;20100;-76
2023/11/19 08:13:50;;;;;;;8.45;2.50;;;;;;;0.77;68.92;94097.59;4887156;29;20025;-76
2023/11/19 08:16:15;;;;;;;5.05;2.65;;;;;;;0.77;68.79;94117.75;4887418;29;20076;-77
2023/11/19 08:18:43;;;;;;;2.65;1.63;;;;;;;0.72;68.72;94091.47;4887214;29;20032;-76
2023/11/19 08:21:09;;;;;;;3.33;1.95;;;;;;;0.74;69.29;94107.78;4888308;29;20037;-76
2023/11/19 08:23:36;;;;;;;4.82;2.30;;;;;;;0.68;69.77;94098.25;4888473;29;20056;-76
2023/11/19 08:26:01;;;;;;;4.45;2.53;;;;;;;0.74;69.55;94097.28;4888423;29;20078;-76
2023/11/19 08:28:27;;;;;;;5.07;2.70;;;;;;;0.83;69.65;94095.78;4888299;29;20264;-76
2023/11/19 08:30:53;;;;;;;4.40;2.45;;;;;;;0.81;69.42;94092.63;4888237;29;20025;-76
2023/11/19 08:33:18;;;;;;;4.90;2.72;;;;;;;0.84;69.84;94100.00;4887327;29;20264;-76
2023/11/19 08:35:45;;;;;;;5.30;2.72;;;;;;;0.93;69.70;94106.38;4891201;29;20339;-76
2023/11/19 08:38:10;;;;;;;5.55;2.78;;;;;;;0.97;69.33;94093.56;4891672;29;20409;-76
2023/11/19 08:40:36;;;;;;;3.72;2.00;;;;;;;1.04;68.73;94094.19;4890806;29;20033;-76
2023/11/19 08:43:01;;;;;;;4.97;2.63;;;;;;;1.09;69.03;94127.56;4891874;29;20029;-76
2023/11/19 08:45:26;;;;;;;3.33;1.73;;;;;;;1.10;68.28;94106.31;4891795;29;20027;-76
2023/11/19 08:47:52;;;;;;;4.32;2.45;;;;;;;1.13;68.55;94092.69;4891841;29;20027;-76
2023/11/19 08:50:17;;;;;;;3.58;2.20;;;;;;;1.24;68.29;94096.19;4890519;29;20167;-76
2023/11/19 08:52:43;;;;;;;4.18;2.50;;;;;;;1.23;68.38;94099.88;4891394;29;20347;-76
2023/11/19 08:55:09;;;;;;;7.60;2.33;;;;;;;1.25;68.03;94087.28;4891652;29;20024;-76
2023/11/19 08:57:35;;;;;;;4.90;2.80;;;;;;;1.26;67.82;94107.25;4891599;29;20104;-76
2023/11/19 09:00:02;;;;;;;4.70;2.33;;;;;;;1.23;67.90;94104.34;4891370;29;20036;-76
2023/11/19 09:02:28;;;;;;;3.17;1.98;;;;;;;1.19;67.74;94104.81;4891587;29;20307;-76
2023/11/19 09:04:53;;;;;;;2.85;1.90;;;;;;;1.16;67.40;94088.75;4891319;29;20029;-76
2023/11/19 09:07:19;;;;;;;3.90;2.28;;;;;;;1.11;67.42;94091.34;4891572;29;20031;-76
2023/11/19 09:09:44;;;;;;;5.20;1.95;;;;;;;1.16;67.71;94083.50;4891469;29;20029;-75
2023/11/19 09:12:09;;;;;;;3.75;2.28;;;;;;;1.31;68.52;94073.16;4891249;29;20040;-76
2023/11/19 09:14:35;;;;;;;3.10;1.80;;;;;;;1.44;67.84;94077.19;4891352;29;20060;-76
2023/11/19 09:17:00;;;;;;;3.15;2.00;;;;;;;1.45;67.76;94070.13;4891293;29;20096;-76
2023/11/19 09:19:29;;;;;;;3.63;2.30;;;;;;;1.58;67.81;94062.59;4890962;29;20096;-76
2023/11/19 09:21:54;;;;;;;3.97;2.13;;;;;;;1.80;66.01;94064.34;4891155;29;20040;-76
2023/11/19 09:24:20;;;;;;;2.53;1.63;;;;;;;1.92;65.32;94090.44;4891425;29;20021;-76
2023/11/19 09:26:45;;;;;;;3.72;2.10;;;;;;;1.69;65.36;94063.47;4891344;29;20025;-77
2023/11/19 09:29:11;;;;;;;4.28;2.15;;;;;;;1.81;66.40;94084.31;4889733;29;20045;-77
2023/11/19 09:31:38;;;;;;;4.38;2.17;;;;;;;1.72;65.25;94105.00;4890994;29;20021;-77
2023/11/19 09:34:03;;;;;;;6.30;3.10;;;;;;;1.78;66.06;94095.34;4890967;29;20025;-77
2023/11/19 09:36:29;;;;;;;5.60;2.15;;;;;;;1.81;65.05;94084.31;4890891;29;20024;-76
2023/11/19 09:38:54;;;;;;;4.32;2.33;;;;;;;2.03;65.96;94065.00;4890917;29;20025;-77
2023/11/19 09:41:20;;;;;;;3.88;2.47;;;;;;;2.08;64.36;94073.72;4891113;29;20020;-76
2023/11/19 09:43:45;;;;;;;5.10;2.35;;;;;;;2.06;64.49;94044.25;4890671;29;20330;-76
2023/11/19 09:46:15;;;;;;;4.05;2.13;;;;;;;2.05;65.14;94047.13;4889410;29;20248;-76
2023/11/19 09:48:41;;;;;;;4.00;2.22;;;;;;;2.12;65.18;94047.72;4889580;29;20080;-76
2023/11/19 09:51:10;;;;;;;3.67;2.42;;;;;;;2.14;65.31;94051.66;4890666;29;20095;-76
2023/11/19 09:53:37;;;;;;;4.63;2.90;;;;;;;2.17;66.25;94027.47;4890551;29;20049;-76
2023/11/19 09:56:06;;;;;;;5.10;2.80;;;;;;;2.30;66.00;94004.38;4890552;29;20219;-76
2023/11/19 09:58:32;;;;;;;4.82;2.80;;;;;;;2.44;64.78;94008.09;4890543;29;20021;-76
2023/11/19 10:00:59;;;;;;;5.10;2.65;;;;;;;2.49;64.15;94000.25;4890589;29;20171;-76
2023/11/19 10:03:26;;;;;;;6.15;2.63;;;;;;;2.38;63.78;94017.03;4890428;29;20029;-75
2023/11/19 10:05:54;;;;;;;5.88;2.78;;;;;;;2.26;64.19;94017.28;4890462;29;20323;-75
2023/11/19 10:08:19;;;;;;;5.68;3.25;;;;;;;2.24;64.48;94024.63;4890418;29;20021;-75
2023/11/19 10:10:45;;;;;;;2.72;1.48;;;;;;;2.18;64.60;94009.88;4890406;29;20051;-75
2023/11/19 10:13:10;;;;;;;4.43;2.20;;;;;;;2.19;64.61;94009.59;4889213;29;20037;-75
2023/11/19 10:15:37;;;;;;;4.82;2.05;;;;;;;2.16;64.53;94012.75;4890117;29;20107;-75
2023/11/19 10:18:06;;;;;;;4.05;2.05;;;;;;;2.28;63.95;94004.66;4890011;29;20033;-75
2023/11/19 10:20:40;;;;;;;3.47;1.90;;;;;;;2.30;63.10;94025.41;4890178;29;20328;-76
2023/11/19 10:23:06;;;;;;;4.60;1.85;;;;;;;2.21;63.12;94031.16;4890175;29;20029;-75
2023/11/19 10:25:33;;;;;;;5.15;2.13;;;;;;;2.29;63.55;94019.38;4890216;29;20052;-76
2023/11/19 10:27:59;;;;;;;3.80;1.95;;;;;;;2.43;62.90;94022.31;4889778;29;20297;-76
2023/11/19 10:30:27;;;;;;;18.35;1.90;;;;;;;2.56;63.08;94003.41;4889949;29;20025;-76
2023/11/19 10:33:10;;;;;;;3.80;2.15;;;;;;;2.56;62.05;94007.88;4889799;29;20069;-76
2023/11/19 10:35:54;;;;;;;3.50;1.63;;;;;;;2.40;61.20;94012.31;4889811;29;20029;-76
2023/11/19 10:38:20;;;;;;;2.67;1.40;;;;;;;2.49;60.82;94000.25;4889716;29;20028;-75
2023/11/19 10:40:46;;;;;;;4.35;1.50;;;;;;;2.55;61.30;93999.22;4889951;29;20021;-76
2023/11/19 10:43:12;;;;;;;2.60;1.42;;;;;;;2.53;60.60;94005.78;4889510;29;20195;-76
2023/11/19 10:45:38;;;;;;;3.13;1.48;;;;;;;2.51;60.44;94000.78;4889686;29;20200;-76
2023/11/19 10:48:08;;;;;;;3.80;2.08;;;;;;;2.66;61.37;94017.66;4889475;29;20044;-76
2023/11/19 10:50:37;;;;;;;3.20;2.03;;;;;;;2.87;60.63;93990.34;4889433;29;20260;-76
2023/11/19 10:53:04;;;;;;;4.80;1.85;;;;;;;2.96;60.18;94019.56;4889414;29;20284;-76
2023/11/19 10:55:31;;;;;;;4.13;1.95;;;;;;;2.89;59.49;93995.31;4888169;29;20025;-76
2023/11/19 10:58:01;;;;;;;4.15;1.80;;;;;;;3.04;59.73;93984.03;4889016;29;20035;-77
2023/11/19 11:00:38;;;;;;;4.45;2.13;;;;;;;3.05;59.00;93996.13;4889397;29;20085;-77
2023/11/19 11:03:10;;;;;;;8.02;1.67;;;;;;;3.01;58.78;93995.84;4889257;29;20033;-76
2023/11/19 11:05:38;;;;;;;6.30;1.83;;;;;;;2.96;59.53;93999.28;4889375;29;20319;-76
2023/11/19 11:08:06;;;;;;;3.53;1.65;;;;;;;3.03;59.75;93992.97;4889328;29;20222;-76
2023/11/19 11:10:36;;;;;;;2.97;1.80;;;;;;;2.88;59.11;93981.38;4889343;29;20033;-77
2023/11/19 11:13:03;;;;;;;2.90;1.63;;;;;;;2.99;59.27;93963.72;4889088;29;20317;-77
2023/11/19 11:15:31;;;;;;;4.35;2.05;;;;;;;3.09;59.10;93960.31;4889069;29;20036;-76
2023/11/19 11:18:01;;;;;;;3.33;1.88;;;;;;;3.18;58.67;93964.03;4889371;29;20096;-77
2023/11/19 11:20:31;;;;;;;5.15;1.80;;;;;;;3.30;57.39;93948.72;4889073;29;20025;-77
2023/11/19 11:23:18;;;;;;;3.78;1.85;;;;;;;3.40;57.15;93959.25;4887873;29;20024;-76
2023/11/19 11:26:18;;;;;;;3.40;1.73;;;;;;;3.30;57.77;93972.44;4888852;29;20052;-77
2023/11/19 11:29:22;;;;;;;2.97;1.38;;;;;;;3.42;57.72;93972.97;4888720;29;20021;-77
2023/11/19 11:32:13;;;;;;;3.63;1.80;;;;;;;3.46;57.13;93959.25;4876611;29;20081;-77
2023/11/19 11:34:54;;;;;;;2.38;1.40;;;;;;;3.47;56.88;93966.09;4888841;29;20092;-77
2023/11/19 11:37:33;;;;;;;1.83;1.17;;;;;;;3.44;56.02;93956.91;4889149;29;20025;-77
2023/11/19 11:40:00;;;;;;;3.67;1.85;;;;;;;3.41;56.87;93955.56;4888652;29;20044;-76